Forside
METAR-TAF:

METAR-TAF

Lufthavne :

Area_Regional_Airport

South Haven, Michigan, USA

Breddekreds: 42-21-03N, længdekreds: 086-15-22W, højde: 203 m

Aktuelle vejr

Denne rapport blev lavet for 12 minutter siden, kl. 21:16 UTC
Vind 6 kt fra vest
Temperatur 1°C
Fugtighed 93%
Tryk 1011 hPa
Sigt: 16.1 km
Overskyet i en højde af 900 ft

METAR: KLWA 262116Z AUTO 27006KT 10SM OVC009 01/00 A2986 RMK AO2 T00080002

Tid: 16:28 (21:28 UTC)


TAF: fraværende

Vejrobservationer og prognoser fra mere end 4000 lufthavne (METAR og TAF).

De gule og røde prikker repræsenterer de meteorologiske stationer.

Flyt musen over at se navnet på stationen.

Så klik over at se vejr observationer og prognoser.

At skifte det kort: Klik på de grønne knapper med et sort kors for at zoome ind; på den grønne knap med en bindestreg for at zoome ud; eller på de grønne pile for tilstødende kort.


METAR-TAF: